Charlo, Montana
Current Conditions -  °F | °C
As of 1:53 PM on Saturday 20 Dec 2014 (Local Time) from KMSO Reporting Station
Overcast Overcast  
Wind Chill: 23°   Ceiling: 6000
Heat Index: 31°   Visibility: 7mi
Dew Point: 29°   Wind: 8mph
Humidity: 92%   Direction: 270°W
Pressure: 29.86"   Gusts: NA
Location:  47.44°N, 114.17°W
Report Text: KMSO 202053Z 27007KT 7SM BKN060 OVC075 M01/M02 A2986 RMK AO2 SLP142 60000 T10061017 56024 $
Loading
Personal Weather Stations






























Interactive Weather Map New forecast layout! Learn more

10-Day Weather Forecast

Advertisements
Track Severe Weather on mobile